Time;durP1;ratioP1;P1;durP2;ratioP2;P2;SDS_P1;SDS_P2;PMS_P1;PMS_P2;Temp;Humidity;BMP_temperature;BMP_pressure;BME280_temperature;BME280_humidity;BME280_pressure;Samples;Min_cycle;Max_cycle;Signal;HPM_P1;HPM_P2
2022/12/09 00:01:36;;;;;;;12.98;9.70;;;;;;;2.98;73.03;100920.50;1900152;75;22203;-56
2022/12/09 00:05:14;;;;;;;16.82;10.78;;;;;;;2.93;73.09;100932.14;1819854;77;21189;-55
2022/12/09 00:08:41;;;;;;;15.85;10.18;;;;;;;2.97;73.20;100932.78;1828324;77;21185;-55
2022/12/09 00:12:27;;;;;;;16.00;9.65;;;;;;;3.06;73.18;100942.91;1875643;76;22207;-55
2022/12/09 00:19:58;;;;;;;19.23;11.12;;;;;;;3.02;73.24;100934.18;1806586;79;21191;-56
2022/12/09 00:37:27;;;;;;;20.52;11.50;;;;;;;3.22;73.58;100910.19;1824443;76;22402;-58
2022/12/09 00:41:00;;;;;;;24.98;12.90;;;;;;;3.19;73.61;100914.48;1760179;79;21562;-55
2022/12/09 00:55:02;;;;;;;22.27;10.90;;;;;;;3.32;73.57;100935.53;1872581;76;22274;-59
2022/12/09 00:58:45;;;;;;;21.40;12.35;;;;;;;3.30;73.66;100935.66;1821297;77;21168;-59
2022/12/09 01:06:57;;;;;;;22.62;12.23;;;;;;;3.37;73.65;100942.34;1836011;78;21387;-58
2022/12/09 01:22:01;;;;;;;25.52;13.03;;;;;;;3.26;73.55;100939.58;1842796;78;21339;-59
2022/12/09 01:25:22;;;;;;;24.40;13.60;;;;;;;3.26;73.50;100923.83;1843115;77;21195;-60
2022/12/09 01:39:47;;;;;;;24.87;12.80;;;;;;;3.41;73.89;100950.58;1896453;73;22540;-59
2022/12/09 01:55:04;;;;;;;29.70;15.75;;;;;;;3.40;73.79;100938.05;1864440;75;21179;-59
2022/12/09 01:58:24;;;;;;;;;;;;;;;3.36;73.64;100923.04;1861695;75;21356;-56
2022/12/09 02:12:42;;;;;;;35.60;13.65;;;;;;;3.32;73.89;100905.30;1776495;78;22578;-59
2022/12/09 02:20:41;;;;;;;35.05;14.25;;;;;;;3.32;74.01;100899.88;1776825;77;22091;-55
2022/12/09 02:32:34;;;;;;;39.08;16.67;;;;;;;3.34;74.01;100880.83;1710656;82;21529;-58
2022/12/09 02:46:32;;;;;;;29.75;15.05;;;;;;;3.43;74.36;100862.03;1813140;79;22525;-58
2022/12/09 02:50:31;;;;;;;38.98;15.72;;;;;;;3.42;74.43;100871.63;1745961;81;21247;-59
2022/12/09 02:54:48;;;;;;;37.40;16.52;;;;;;;3.51;74.39;100871.78;1803120;74;22516;-56
2022/12/09 03:07:01;;;;;;;43.78;17.48;;;;;;;3.38;74.02;100888.58;1765907;77;21176;-56
2022/12/09 03:10:40;;;;;;;37.85;16.82;;;;;;;3.23;73.80;100878.95;1746757;76;21219;-59
2022/12/09 03:18:01;;;;;;;35.23;16.90;;;;;;;3.25;74.12;100885.59;1768081;77;21188;-59
2022/12/09 03:25:35;;;;;;;45.45;19.73;;;;;;;3.24;74.17;100873.03;1687107;79;21522;-56
2022/12/09 03:29:20;;;;;;;44.65;16.97;;;;;;;3.24;74.19;100892.84;1730460;79;21319;-56
2022/12/09 03:39:30;;;;;;;44.40;19.73;;;;;;;3.23;74.33;100868.14;1732942;78;21366;-58
2022/12/09 03:48:46;;;;;;;45.17;17.45;;;;;;;3.26;74.49;100870.60;1666912;82;21452;-55
2022/12/09 03:59:49;;;;;;;43.45;19.75;;;;;;;3.40;74.60;100874.45;1746302;77;21216;-59
2022/12/09 04:07:18;;;;;;;45.50;18.12;;;;;;;3.47;74.56;100855.42;1752237;79;21942;-59
2022/12/09 04:10:44;;;;;;;40.60;18.95;;;;;;;3.49;74.63;100851.24;1747736;78;22039;-57
2022/12/09 04:13:58;;;;;;;40.98;19.00;;;;;;;3.52;74.72;100849.12;1751411;78;21212;-59
2022/12/09 04:17:28;;;;;;;42.48;19.90;;;;;;;3.54;74.65;100862.55;1718095;77;21148;-56
2022/12/09 04:23:55;;;;;;;45.50;18.25;;;;;;;3.52;74.54;100863.18;1764825;77;21356;-59
2022/12/09 04:27:52;;;;;;;51.98;21.05;;;;;;;3.56;74.46;100861.46;1899803;75;22224;-59
2022/12/09 04:35:17;;;;;;;52.27;19.90;;;;;;;3.42;74.36;100848.62;1840812;77;21753;-56
2022/12/09 04:38:58;;;;;;;;;;;;;;;3.43;74.54;100845.80;1839154;77;21174;-56
2022/12/09 04:42:22;;;;;;;39.55;18.02;;;;;;;3.48;74.69;100836.84;1749338;81;20359;-56
2022/12/09 04:49:52;;;;;;;50.15;20.00;;;;;;;3.60;74.82;100844.50;1829413;72;22419;-62
2022/12/09 04:53:25;;;;;;;50.10;22.90;;;;;;;3.61;74.78;100847.08;1865230;74;22340;-60
2022/12/09 04:57:28;;;;;;;48.63;21.90;;;;;;;3.55;74.74;100836.71;1808622;76;21165;-60
2022/12/09 05:01:16;;;;;;;48.42;22.02;;;;;;;3.56;74.71;100838.45;1664435;81;21488;31
2022/12/09 05:05:22;;;;;;;48.42;20.88;;;;;;;3.56;74.62;100827.63;1723006;80;21620;-57
2022/12/09 05:12:53;;;;;;;40.58;19.32;;;;;;;3.55;74.80;100821.83;1737074;80;21229;-55
2022/12/09 05:32:21;;;;;;;55.48;20.08;;;;;;;3.51;74.63;100843.84;1704474;81;21211;-55
2022/12/09 05:35:35;;;;;;;54.38;19.15;;;;;;;3.49;74.75;100833.14;1684209;81;22067;-56
2022/12/09 05:39:21;;;;;;;66.90;24.32;;;;;;;3.51;74.86;100826.25;1735053;81;21436;-60
2022/12/09 05:43:20;;;;;;;52.23;22.37;;;;;;;3.56;74.99;100829.46;1718188;80;21178;-56
2022/12/09 05:47:17;;;;;;;39.20;17.00;;;;;;;3.57;75.06;100827.98;1796905;77;21249;-56
2022/12/09 06:14:09;;;;;;;37.17;16.77;;;;;;;3.58;75.14;100822.09;1829542;75;22307;-61
2022/12/09 06:18:14;;;;;;;44.42;16.75;;;;;;;3.52;75.17;100815.81;1821874;73;21194;-61
2022/12/09 06:28:33;;;;;;;45.10;16.48;;;;;;;3.64;75.28;100817.54;1753420;76;21610;31
2022/12/09 06:32:48;;;;;;;41.65;16.90;;;;;;;3.67;75.27;100818.65;1791576;76;21269;-57
2022/12/09 06:47:07;;;;;;;46.73;17.57;;;;;;;3.80;75.15;100827.05;1780073;75;21247;-60
2022/12/09 06:54:00;;;;;;;50.08;17.40;;;;;;;3.84;75.08;100814.97;1705495;76;21425;-61
2022/12/09 06:57:38;;;;;;;41.20;17.00;;;;;;;3.89;75.13;100811.89;1696719;80;21259;-60
2022/12/09 07:01:03;;;;;;;43.10;21.33;;;;;;;3.92;75.10;100812.52;1637014;81;21255;-61
2022/12/09 07:11:57;;;;;;;35.90;14.10;;;;;;;4.02;75.21;100794.55;1670981;80;21369;-56
2022/12/09 07:19:01;;;;;;;43.23;13.78;;;;;;;4.15;75.38;100793.92;1663228;81;21362;-55
2022/12/09 07:23:15;;;;;;;36.28;14.30;;;;;;;4.18;75.38;100781.48;1670059;80;21266;-55
2022/12/09 07:27:06;;;;;;;35.98;14.43;;;;;;;4.30;75.41;100780.45;1866077;73;20182;-57
2022/12/09 07:30:50;;;;;;;39.30;16.02;;;;;;;4.24;75.40;100779.61;1678051;80;21554;-58
2022/12/09 07:34:11;;;;;;;34.65;15.35;;;;;;;4.25;75.36;100776.42;1673844;79;21922;-55
2022/12/09 07:37:31;;;;;;;35.20;16.00;;;;;;;4.25;75.37;100777.26;1726992;82;21204;-62
2022/12/09 07:40:49;;;;;;;36.63;14.73;;;;;;;4.27;75.37;100778.48;1685427;82;21246;-61
2022/12/09 07:54:29;;;;;;;32.65;14.25;;;;;;;4.26;75.39;100773.58;1694902;80;21251;-60
2022/12/09 08:59:32;;;;;;;37.10;21.40;;;;;;;4.71;75.86;100701.59;1684240;81;21880;-56
2022/12/09 09:03:39;;;;;;;16.77;9.88;;;;;;;4.70;75.83;100687.16;1680241;81;21214;31
2022/12/09 09:07:13;;;;;;;16.37;10.18;;;;;;;4.73;75.83;100687.38;1674248;82;21380;-55
2022/12/09 09:25:12;;;;;;;17.77;11.83;;;;;;;4.73;76.02;100661.63;1796020;77;21404;-59
2022/12/09 09:28:52;;;;;;;15.43;9.93;;;;;;;4.76;76.08;100646.48;1755110;79;21605;-59
2022/12/09 09:32:21;;;;;;;18.02;10.95;;;;;;;4.75;76.04;100642.89;1791537;77;22236;-59
2022/12/09 09:35:56;;;;;;;14.03;9.23;;;;;;;4.77;75.99;100642.76;1793580;75;21160;-60
2022/12/09 09:54:40;;;;;;;15.93;9.83;;;;;;;4.84;76.06;100611.38;1833853;76;22317;-58
2022/12/09 10:01:49;;;;;;;16.52;9.38;;;;;;;4.81;76.10;100608.45;1769140;79;21717;-59
2022/12/09 10:05:25;;;;;;;20.85;12.70;;;;;;;4.81;76.03;100605.74;1745239;81;21204;-59
2022/12/09 10:08:57;;;;;;;20.95;11.68;;;;;;;4.81;76.02;100603.52;1738022;81;21379;-59
2022/12/09 10:12:45;;;;;;;17.65;11.10;;;;;;;4.86;76.14;100603.98;1729832;82;22092;-58
2022/12/09 10:16:16;;;;;;;22.15;11.85;;;;;;;4.89;76.15;100603.71;1738256;80;21938;-60
2022/12/09 10:19:40;;;;;;;16.52;10.80;;;;;;;4.96;76.18;100600.84;1740259;81;21812;-62
2022/12/09 10:23:09;;;;;;;18.60;10.58;;;;;;;4.98;76.13;100598.86;1741883;81;21220;-60
2022/12/09 10:26:28;;;;;;;18.20;12.20;;;;;;;4.96;76.06;100603.55;1738736;82;21316;-59
2022/12/09 10:30:16;;;;;;;19.10;12.80;;;;;;;4.98;76.21;100592.07;1740101;81;21244;-58
2022/12/09 10:33:55;;;;;;;17.75;12.07;;;;;;;5.00;76.28;100589.57;1741312;81;21510;-58
2022/12/09 10:37:21;;;;;;;20.32;13.05;;;;;;;5.06;76.40;100586.31;1734143;82;21268;-58
2022/12/09 10:43:33;;;;;;;22.62;16.37;;;;;;;5.18;76.46;100589.31;1861119;76;27952;-60
2022/12/09 10:44:42;;;;;;;20.57;14.03;;;;;;;5.22;76.33;100583.09;1766077;81;21236;-59
2022/12/09 10:48:15;;;;;;;19.92;13.45;;;;;;;5.30;76.31;100583.26;1739597;82;21247;-58
2022/12/09 10:51:35;;;;;;;22.02;14.28;;;;;;;5.30;76.23;100577.34;1759035;80;21279;-58
2022/12/09 10:54:54;;;;;;;19.25;12.47;;;;;;;5.31;76.32;100578.22;1755605;80;21208;-59
2022/12/09 10:58:35;;;;;;;20.48;13.38;;;;;;;5.32;76.35;100571.78;1740485;80;21366;-59
2022/12/09 11:02:17;;;;;;;21.87;13.35;;;;;;;5.32;76.40;100569.06;1775787;80;21989;-57
2022/12/09 11:05:39;;;;;;;19.70;12.78;;;;;;;5.33;76.45;100565.34;1773204;79;21425;-57
2022/12/09 11:23:24;;;;;;;15.32;10.32;;;;;;;5.27;76.82;100545.05;1783046;76;22309;-57
2022/12/09 11:28:02;;;;;;;16.77;11.30;;;;;;;5.23;76.95;100547.67;1748223;76;21203;-60
2022/12/09 11:32:05;;;;;;;18.30;11.90;;;;;;;5.26;77.21;100542.48;1715942;80;21244;-57
2022/12/09 11:36:12;;;;;;;18.45;12.45;;;;;;;5.28;77.23;100544.57;1689139;81;21373;-60
2022/12/09 11:49:46;;;;;;;19.87;13.18;;;;;;;5.29;77.33;100524.08;1667162;81;21533;-58
2022/12/09 11:53:57;;;;;;;23.18;14.20;;;;;;;5.31;77.39;100521.22;1735034;80;21264;-58
2022/12/09 12:01:43;;;;;;;23.90;15.48;;;;;;;5.43;77.55;100511.45;1860121;76;22242;-57
2022/12/09 12:09:24;;;;;;;;;;;;;;;5.48;77.69;100509.67;1745946;81;21264;-57
2022/12/09 12:13:14;;;;;;;25.75;17.10;;;;;;;5.47;77.55;100512.05;1739693;81;20228;-57
2022/12/09 12:17:25;;;;;;;26.12;15.00;;;;;;;5.47;77.78;100514.23;1739262;81;21176;-57
2022/12/09 12:21:30;;;;;;;25.05;15.68;;;;;;;5.53;77.91;100515.06;1745164;81;21196;-59
2022/12/09 12:30:01;;;;;;;26.02;15.80;;;;;;;5.60;77.95;100504.46;1572849;88;21301;-60
2022/12/09 12:34:08;;;;;;;26.65;16.85;;;;;;;5.64;77.92;100500.48;1588867;89;21499;-60
2022/12/09 12:37:43;;;;;;;24.05;15.23;;;;;;;5.70;77.80;100493.98;1850712;76;22618;-60
2022/12/09 12:41:36;;;;;;;20.77;14.87;;;;;;;5.63;77.78;100496.90;1754733;81;21367;-57
2022/12/09 12:49:27;;;;;;;;;;;;;;;5.62;77.89;100482.98;1752959;80;21954;-60
2022/12/09 12:53:27;;;;;;;21.57;13.60;;;;;;;5.66;77.91;100491.18;1863340;74;22715;-59
2022/12/09 12:57:00;;;;;;;22.00;14.78;;;;;;;5.59;77.99;100491.41;1798370;79;21238;-61
2022/12/09 13:00:42;;;;;;;26.77;16.67;;;;;;;5.62;78.04;100486.18;1859757;74;22218;-56
2022/12/09 13:04:27;;;;;;;26.17;16.55;;;;;;;5.63;78.13;100487.88;1829058;76;23096;-56
2022/12/09 13:08:48;;;;;;;27.48;17.98;;;;;;;5.58;78.16;100499.70;1736652;79;22043;-58
2022/12/09 13:23:57;;;;;;;29.70;18.67;;;;;;;5.57;78.25;100494.76;1848245;76;23101;-56
2022/12/09 13:27:46;;;;;;;32.85;19.17;;;;;;;5.59;78.36;100502.76;1860533;76;22305;-57
2022/12/09 13:31:44;;;;;;;29.67;18.25;;;;;;;5.54;78.37;100507.26;1764403;79;21203;-56
2022/12/09 13:35:39;;;;;;;29.98;19.37;;;;;;;5.56;78.33;100505.27;1917304;74;22187;-60
2022/12/09 13:39:53;;;;;;;33.45;20.32;;;;;;;5.50;78.32;100506.33;1841416;77;21196;-60
2022/12/09 13:43:43;;;;;;;35.70;21.68;;;;;;;5.50;78.43;100499.55;1871881;76;21213;-58
2022/12/09 14:12:15;;;;;;;54.30;33.65;;;;;;;5.33;78.55;100490.70;1730945;78;28492;-55
2022/12/09 14:15:41;;;;;;;52.43;27.95;;;;;;;5.30;78.45;100492.34;1688179;80;21718;-59
2022/12/09 14:23:52;;;;;;;36.58;21.10;;;;;;;5.19;78.44;100489.75;1790920;75;21270;-56
2022/12/09 14:27:29;;;;;;;39.03;21.48;;;;;;;5.17;78.55;100487.70;1754353;79;21259;-59
2022/12/09 14:31:28;;;;;;;33.00;19.00;;;;;;;5.18;78.64;100485.33;1657297;84;21217;-59
2022/12/09 14:35:25;;;;;;;35.28;20.20;;;;;;;5.19;78.64;100487.91;1753260;81;21630;-59
2022/12/09 14:39:07;;;;;;;33.05;18.60;;;;;;;5.16;78.66;100486.83;1751761;79;21221;-59
2022/12/09 14:42:52;;;;;;;29.50;17.15;;;;;;;5.18;78.70;100483.97;1745731;80;21244;-59
2022/12/09 14:46:39;;;;;;;33.70;19.00;;;;;;;5.17;78.73;100484.46;1680675;81;21274;-59
2022/12/09 14:53:37;;;;;;;31.82;17.52;;;;;;;5.26;78.99;100481.42;1756592;80;21358;-56
2022/12/09 14:57:18;;;;;;;29.60;17.98;;;;;;;5.31;79.00;100481.87;1745930;80;21248;-56
2022/12/09 15:01:00;;;;;;;31.87;17.70;;;;;;;5.34;79.07;100479.73;1683817;82;21294;-56
2022/12/09 15:04:31;;;;;;;31.90;16.17;;;;;;;5.37;78.98;100485.38;1694452;81;21227;-55
2022/12/09 15:08:13;;;;;;;27.65;15.93;;;;;;;5.40;79.04;100486.44;1694472;81;21178;-55
2022/12/09 15:11:48;;;;;;;25.12;15.03;;;;;;;5.40;78.97;100485.95;1723243;81;21839;-55
2022/12/09 15:15:47;;;;;;;26.80;15.63;;;;;;;5.39;78.88;100496.95;1691251;83;21286;-59
2022/12/09 15:23:50;;;;;;;26.70;15.60;;;;;;;5.43;79.04;100493.81;1701771;82;21319;-55
2022/12/09 15:31:58;;;;;;;30.15;16.65;;;;;;;5.50;79.13;100496.30;1737996;80;21261;-54
2022/12/09 15:35:51;;;;;;;32.17;17.15;;;;;;;5.56;79.16;100489.47;1679447;81;21532;-54
2022/12/09 15:40:14;;;;;;;28.77;16.48;;;;;;;5.57;79.02;100500.19;1653581;84;21569;-58
2022/12/09 15:44:02;;;;;;;31.37;16.60;;;;;;;5.61;79.14;100492.62;1693152;82;21629;-60
2022/12/09 15:51:06;;;;;;;29.42;17.12;;;;;;;5.70;78.94;100495.34;1876152;76;22231;-59
2022/12/09 15:54:53;;;;;;;27.15;16.20;;;;;;;5.61;78.84;100494.81;1809433;77;21221;-58
2022/12/09 15:58:42;;;;;;;29.40;18.20;;;;;;;5.62;78.74;100491.61;1871059;76;22440;-59
2022/12/09 16:06:45;;;;;;;29.95;18.80;;;;;;;5.50;78.68;100492.23;1715071;83;21232;-57
2022/12/09 16:20:51;;;;;;;24.18;15.90;;;;;;;5.27;79.03;100474.50;1806159;79;22616;-58
2022/12/09 16:24:53;;;;;;;25.00;16.17;;;;;;;5.22;79.00;100475.90;1768571;80;21236;-54
2022/12/09 16:39:32;;;;;;;36.95;19.90;;;;;;;5.22;79.21;100482.69;1821767;76;22286;-54
2022/12/09 16:43:32;;;;;;;40.30;20.43;;;;;;;5.16;79.24;100476.46;1741132;81;21250;-58
2022/12/09 16:47:38;;;;;;;41.85;21.60;;;;;;;5.18;79.36;100478.55;1740983;81;21196;-54
2022/12/09 17:01:57;;;;;;;34.73;19.45;;;;;;;5.24;79.51;100472.55;1821432;76;22265;-54
2022/12/09 17:05:36;;;;;;;43.25;20.65;;;;;;;5.19;79.53;100467.55;1717933;81;21220;-55
2022/12/09 17:09:17;;;;;;;37.58;21.42;;;;;;;5.21;79.52;100474.19;1740137;78;21284;-56
2022/12/09 17:13:01;;;;;;;37.28;21.62;;;;;;;5.18;79.50;100471.27;1759255;79;21220;-56
2022/12/09 17:16:34;;;;;;;40.77;23.03;;;;;;;5.20;79.55;100476.56;1743531;79;21243;-56
2022/12/09 17:21:06;;;;;;;35.43;19.67;;;;;;;5.21;79.54;100469.64;1747021;80;21729;-55
2022/12/09 17:24:49;;;;;;;30.77;18.57;;;;;;;5.20;79.54;100474.68;1756528;79;21175;-55
2022/12/09 17:28:35;;;;;;;27.65;16.97;;;;;;;5.24;79.61;100476.14;1875676;76;22269;-58
2022/12/09 18:15:40;;;;;;;34.65;16.93;;;;;;;5.23;79.66;100476.28;1711946;79;21461;-59
2022/12/09 18:19:34;;;;;;;31.85;15.85;;;;;;;5.19;79.82;100489.26;1713723;82;21388;-60
2022/12/09 18:23:12;;;;;;;27.02;16.27;;;;;;;5.22;79.88;100487.63;1748613;82;21251;-59
2022/12/09 18:26:32;;;;;;;31.95;16.80;;;;;;;5.23;79.87;100486.61;1739871;82;21216;-60
2022/12/09 18:29:54;;;;;;;42.00;19.23;;;;;;;5.25;79.91;100491.41;1735231;82;21228;-59
2022/12/09 18:33:49;;;;;;;30.23;16.87;;;;;;;5.28;79.93;100498.44;1735429;82;21232;-60
2022/12/09 18:37:17;;;;;;;38.98;17.87;;;;;;;5.31;79.94;100486.77;1735511;81;21553;-56
2022/12/09 18:40:59;;;;;;;30.68;16.07;;;;;;;5.32;79.91;100490.36;1735683;81;21343;-56
2022/12/09 18:44:28;;;;;;;29.42;17.23;;;;;;;5.34;79.83;100489.73;1735279;82;21930;-56
2022/12/09 18:48:14;;;;;;;32.13;18.82;;;;;;;5.32;79.77;100479.50;1767185;79;21199;-56
2022/12/09 18:51:47;;;;;;;35.43;18.35;;;;;;;5.32;79.74;100476.30;1806700;78;21175;-60
2022/12/09 18:55:16;;;;;;;29.15;16.50;;;;;;;5.34;79.77;100483.81;1761917;80;21208;-60
2022/12/09 18:58:52;;;;;;;32.10;17.15;;;;;;;5.29;79.69;100479.78;1762111;81;21315;-60
2022/12/09 19:02:13;;;;;;;31.90;17.73;;;;;;;5.28;79.77;100480.80;1740318;82;21283;-57
2022/12/09 19:06:00;;;;;;;36.23;18.50;;;;;;;5.29;79.86;100480.65;1739787;82;21232;-56
2022/12/09 19:09:25;;;;;;;32.53;17.50;;;;;;;5.30;79.81;100482.84;1739961;82;21259;-56
2022/12/09 19:12:58;;;;;;;41.13;19.82;;;;;;;5.30;79.85;100484.20;1714986;82;21252;-60
2022/12/09 19:16:27;;;;;;;36.85;19.90;;;;;;;5.26;79.71;100478.70;1724525;82;21561;-59
2022/12/09 19:19:52;;;;;;;42.65;22.22;;;;;;;5.26;79.73;100475.99;1855643;75;22288;-60
2022/12/09 19:23:13;;;;;;;39.58;22.35;;;;;;;5.22;79.84;100478.61;1811629;78;21172;-60
2022/12/09 19:26:46;;;;;;;40.03;20.02;;;;;;;5.24;79.92;100479.34;1812102;78;21151;-60
2022/12/09 19:30:52;;;;;;;48.55;21.57;;;;;;;5.25;79.91;100483.27;1812024;79;21164;-60
2022/12/09 19:34:38;;;;;;;59.30;22.17;;;;;;;5.31;79.94;100488.13;1841244;76;22277;-55
2022/12/09 19:42:04;;;;;;;52.62;22.80;;;;;;;5.38;80.01;100497.44;1836933;76;20255;-56
2022/12/09 19:46:01;;;;;;;41.63;21.80;;;;;;;5.35;80.09;100490.94;1780173;80;21374;-57
2022/12/09 19:50:00;;;;;;;45.90;20.90;;;;;;;5.40;80.04;100493.23;1746297;80;21204;-56
2022/12/09 19:53:35;;;;;;;42.73;19.98;;;;;;;5.37;79.93;100494.38;1778525;79;21211;-55
2022/12/09 19:57:14;;;;;;;56.85;24.10;;;;;;;5.35;79.86;100495.50;1772064;80;21212;-56
2022/12/09 20:01:14;;;;;;;62.73;23.95;;;;;;;5.34;79.84;100489.73;1747111;82;21208;-56
2022/12/09 20:08:09;;;;;;;77.42;25.70;;;;;;;5.33;79.91;100492.06;1729152;82;21837;-60
2022/12/09 20:15:42;;;;;;;88.45;26.93;;;;;;;5.32;79.93;100499.85;1736124;82;21371;-59
2022/12/09 20:19:31;;;;;;;71.10;25.77;;;;;;;5.33;80.00;100498.84;1735940;82;21307;-60
2022/12/09 20:23:17;;;;;;;50.67;23.42;;;;;;;5.37;80.01;100492.16;1735707;82;21776;-60
2022/12/09 20:26:58;;;;;;;45.98;23.95;;;;;;;5.37;79.98;100493.52;1734503;82;21296;-60
2022/12/09 20:30:39;;;;;;;41.75;20.72;;;;;;;5.43;79.98;100490.23;1830078;77;22257;-59
2022/12/09 20:34:26;;;;;;;39.40;20.60;;;;;;;5.36;79.98;100483.14;1777292;80;21386;-60
2022/12/09 20:38:05;;;;;;;43.30;21.12;;;;;;;5.34;79.99;100477.02;1778054;80;21761;-58
2022/12/09 20:41:37;;;;;;;46.02;21.62;;;;;;;5.36;80.01;100489.09;1764170;80;21264;-54
2022/12/09 20:45:37;;;;;;;36.13;19.02;;;;;;;5.36;80.01;100478.23;1776159;80;21264;-55
2022/12/09 20:49:44;;;;;;;43.05;21.90;;;;;;;5.37;80.05;100479.94;1724641;82;21363;-56
2022/12/09 20:53:33;;;;;;;37.75;19.15;;;;;;;5.37;80.05;100489.44;1749351;81;21379;-59
2022/12/09 20:57:15;;;;;;;38.10;18.02;;;;;;;5.36;80.04;100489.93;1760861;80;21740;-59
2022/12/09 21:01:22;;;;;;;39.25;19.90;;;;;;;5.37;80.05;100484.87;1718617;82;21183;-60
2022/12/09 21:04:58;;;;;;;38.00;19.30;;;;;;;5.40;79.96;100479.66;1853597;76;22284;-60
2022/12/09 21:08:50;;;;;;;31.20;17.42;;;;;;;5.35;79.98;100475.14;1816586;79;21278;-55
2022/12/09 21:12:57;;;;;;;36.93;19.02;;;;;;;5.39;80.08;100475.23;1804221;79;22359;-54
2022/12/09 21:16:30;;;;;;;43.05;18.95;;;;;;;5.41;80.12;100482.72;1801914;79;21196;-60
2022/12/09 21:20:03;;;;;;;40.03;18.90;;;;;;;5.37;80.05;100482.17;1770772;79;21320;-59
2022/12/09 21:24:11;;;;;;;40.05;19.30;;;;;;;5.32;79.91;100479.50;1804704;79;21317;-55
2022/12/09 21:28:06;;;;;;;35.92;17.52;;;;;;;5.28;79.85;100475.36;1794584;79;21216;-55
2022/12/09 21:32:02;;;;;;;37.42;17.45;;;;;;;5.25;79.90;100475.65;1804871;79;21365;-56
2022/12/09 21:35:30;;;;;;;33.45;17.20;;;;;;;5.25;79.98;100475.13;1786155;79;21713;-55
2022/12/09 21:38:52;;;;;;;40.00;17.80;;;;;;;5.25;80.04;100469.70;1804915;79;21587;-56
2022/12/09 21:43:08;;;;;;;33.53;17.17;;;;;;;5.27;80.19;100476.34;1804700;79;21654;-59
2022/12/09 21:46:50;;;;;;;39.65;16.32;;;;;;;5.29;80.22;100473.00;1773294;81;21871;-59
2022/12/09 21:51:25;;;;;;;44.10;15.70;;;;;;;5.30;80.20;100466.56;1772636;80;21547;-55
2022/12/09 21:55:29;;;;;;;32.60;14.90;;;;;;;5.30;80.24;100471.98;1766369;80;21220;-55
2022/12/09 22:01:00;;;;;;;26.90;13.13;;;;;;;5.41;80.33;100478.16;1835138;78;22249;-58
2022/12/09 22:04:25;;;;;;;26.40;13.05;;;;;;;5.38;80.37;100477.58;1810174;79;21228;-59
2022/12/09 22:12:22;;;;;;;23.00;12.65;;;;;;;5.44;80.50;100472.97;1779185;79;21263;-58
2022/12/09 22:23:54;;;;;;;38.08;14.47;;;;;;;5.44;80.37;100470.25;1815755;78;21722;-55
2022/12/09 22:27:18;;;;;;;37.80;14.07;;;;;;;5.44;80.48;100471.61;1822494;78;21204;-58
2022/12/09 22:35:00;;;;;;;26.93;11.53;;;;;;;5.53;80.65;100463.47;1753282;81;21221;-55
2022/12/09 22:38:59;;;;;;;30.92;11.65;;;;;;;5.58;80.70;100471.19;1810451;78;21213;-58
2022/12/09 22:42:46;;;;;;;;;;;;;;;;;;;;;
2022/12/09 22:45:57;;;;;;;23.25;11.83;;;;;;;5.62;80.63;100467.17;1752953;80;21533;-58
2022/12/09 22:49:55;;;;;;;30.95;12.15;;;;;;;5.61;80.58;100466.83;1739739;80;21378;-59
2022/12/09 23:03:58;;;;;;;32.35;9.90;;;;;;;5.64;80.59;100472.84;1809492;77;22272;-55
2022/12/09 23:07:37;;;;;;;27.50;11.10;;;;;;;5.68;80.69;100470.67;1888653;73;22243;-54
2022/12/09 23:25:34;;;;;;;24.40;10.38;;;;;;;5.76;80.88;100484.39;1791333;74;22302;-56
2022/12/09 23:33:13;;;;;;;27.90;11.12;;;;;;;5.72;80.84;100496.03;1739713;79;21172;-59
2022/12/09 23:36:33;;;;;;;26.87;11.08;;;;;;;5.72;80.72;100485.17;1751392;79;21219;-58
2022/12/09 23:40:16;;;;;;;33.80;10.60;;;;;;;5.74;80.55;100487.25;1847000;74;22271;-58
2022/12/09 23:43:59;;;;;;;23.02;11.60;;;;;;;5.67;80.48;100491.56;1792159;78;21201;-59
2022/12/09 23:47:38;;;;;;;34.03;11.90;;;;;;;5.65;80.42;100492.68;1804005;77;21167;-59
2022/12/09 23:51:30;;;;;;;35.15;11.50;;;;;;;5.70;80.46;100493.12;1885429;76;22238;-59
2022/12/09 23:54:56;;;;;;;30.35;11.33;;;;;;;5.69;80.45;100498.20;1849500;76;22276;-59
